Time;durP1;ratioP1;P1;durP2;ratioP2;P2;SDS_P1;SDS_P2;PMS_P1;PMS_P2;Temp;Humidity;BMP_temperature;BMP_pressure;BME280_temperature;BME280_humidity;BME280_pressure;Samples;Min_cycle;Max_cycle;Signal;HPM_P1;HPM_P2
2020/12/19 00:01:35;;;;;;;11.07;2.25;;;;;;;11.07;55.48;101584.84;5006669;28;20670;-71
2020/12/19 00:04:02;;;;;;;5.03;2.58;;;;;;;11.02;55.96;101588.28;5003374;28;20041;-71
2020/12/19 00:06:27;;;;;;;7.72;2.20;;;;;;;10.72;56.72;101578.84;5007272;28;20279;-72
2020/12/19 00:08:53;;;;;;;5.10;2.55;;;;;;;10.71;57.04;101578.84;5011404;28;20044;-71
2020/12/19 00:11:19;;;;;;;5.47;2.70;;;;;;;10.66;57.22;101580.56;5012537;28;20033;-70
2020/12/19 00:13:45;;;;;;;5.25;2.47;;;;;;;10.38;58.22;101572.78;5007229;28;20117;-71
2020/12/19 00:16:17;;;;;;;2.78;1.98;;;;;;;11.00;56.13;101569.31;5011111;28;20042;-71
2020/12/19 00:18:44;;;;;;;6.45;2.30;;;;;;;10.79;57.02;101565.03;5000628;28;20072;-71
2020/12/19 00:21:10;;;;;;;4.50;2.17;;;;;;;10.98;56.27;101560.72;5003528;28;20152;-72
2020/12/19 00:23:36;;;;;;;5.57;2.42;;;;;;;10.92;56.66;101558.16;4986518;28;20101;-71
2020/12/19 00:26:02;;;;;;;5.80;2.22;;;;;;;10.95;56.25;101555.53;5010200;28;20053;-72
2020/12/19 00:28:27;;;;;;;5.75;2.58;;;;;;;10.93;56.54;101562.44;5010285;28;20595;-72
2020/12/19 00:30:54;;;;;;;3.70;2.47;;;;;;;10.65;57.16;101555.56;5014954;28;20029;-71
2020/12/19 00:33:19;;;;;;;3.08;2.10;;;;;;;10.98;56.62;101552.97;5005065;28;20037;-71
2020/12/19 00:35:45;;;;;;;5.78;2.13;;;;;;;11.07;55.93;101543.44;5006552;28;20088;-70
2020/12/19 00:38:10;;;;;;;4.32;2.55;;;;;;;10.77;57.07;101545.22;5013443;28;20022;-72
2020/12/19 00:40:36;;;;;;;8.18;2.72;;;;;;;11.18;55.31;101539.97;5009456;28;20030;-71
2020/12/19 00:43:01;;;;;;;7.53;3.63;;;;;;;11.21;55.30;101537.38;4993414;28;20018;-71
2020/12/19 00:45:27;;;;;;;4.03;2.35;;;;;;;11.10;56.21;101543.47;5015973;28;20270;-69
2020/12/19 00:47:52;;;;;;;4.07;2.50;;;;;;;11.07;55.88;101533.09;5016691;28;20041;-70
2020/12/19 00:50:18;;;;;;;5.55;2.50;;;;;;;11.02;56.15;101544.31;5008596;28;20045;-70
2020/12/19 00:52:43;;;;;;;4.40;2.28;;;;;;;11.07;55.65;101535.69;5000288;28;20060;-69
2020/12/19 00:55:09;;;;;;;4.97;2.10;;;;;;;11.08;55.38;101538.28;5010216;28;20088;-70
2020/12/19 00:57:35;;;;;;;5.53;2.25;;;;;;;10.85;55.68;101529.69;5009716;28;20046;-69
2020/12/19 01:00:03;;;;;;;9.60;2.95;;;;;;;10.75;56.14;101536.59;5015394;28;20038;-72
2020/12/19 01:02:28;;;;;;;8.98;2.38;;;;;;;10.67;56.19;101535.75;5017701;28;20523;-70
2020/12/19 01:04:54;;;;;;;7.78;2.80;;;;;;;10.66;55.73;101534.03;5013585;28;20040;-70
2020/12/19 01:07:19;;;;;;;3.83;2.20;;;;;;;10.66;55.62;101536.63;5015195;28;20044;-70
2020/12/19 01:09:45;;;;;;;4.05;2.35;;;;;;;10.53;56.16;101531.44;5013676;28;20325;-69
2020/12/19 01:12:10;;;;;;;6.57;3.00;;;;;;;10.47;56.42;101526.28;5019476;28;20034;-70
2020/12/19 01:14:36;;;;;;;3.33;2.42;;;;;;;10.45;56.13;101522.84;5011923;28;20065;-70
2020/12/19 01:17:05;;;;;;;5.78;2.25;;;;;;;10.47;56.01;101522.81;5011347;28;20093;-70
2020/12/19 01:19:31;;;;;;;7.15;2.58;;;;;;;10.53;56.15;101520.25;5010118;28;20450;-70
2020/12/19 01:21:57;;;;;;;6.70;3.03;;;;;;;10.41;56.46;101523.69;5017549;28;20030;-70
2020/12/19 01:24:23;;;;;;;5.20;2.22;;;;;;;10.48;56.01;101529.72;5016702;28;20104;-70
2020/12/19 01:26:48;;;;;;;6.93;3.20;;;;;;;10.25;57.04;101535.72;5016834;28;20072;-72
2020/12/19 01:29:14;;;;;;;5.20;3.50;;;;;;;10.37;56.67;101530.56;5018254;28;20041;-69
2020/12/19 01:31:40;;;;;;;5.20;3.10;;;;;;;10.11;57.12;101527.06;5014935;28;20090;-69
2020/12/19 01:34:06;;;;;;;6.03;3.50;;;;;;;10.38;56.73;101526.25;5018114;28;20506;-70
2020/12/19 01:36:32;;;;;;;8.13;2.90;;;;;;;10.31;56.98;101529.72;5015245;28;20039;-70
2020/12/19 01:38:58;;;;;;;3.53;2.35;;;;;;;10.40;56.29;101527.13;5013826;28;20041;-70
2020/12/19 01:41:24;;;;;;;5.13;2.83;;;;;;;10.20;57.20;101519.31;5009352;28;20034;-69
2020/12/19 01:43:52;;;;;;;3.85;2.42;;;;;;;10.35;56.66;101515.94;5016195;28;20435;-70
2020/12/19 01:46:42;;;;;;;4.88;3.03;;;;;;;10.36;56.41;101520.25;5010753;28;20136;-69
2020/12/19 01:49:09;;;;;;;4.47;3.03;;;;;;;10.36;56.30;101517.69;5015997;28;20550;-71
2020/12/19 01:51:37;;;;;;;3.70;2.40;;;;;;;10.26;56.52;101505.56;5010417;28;20041;-71
2020/12/19 01:54:03;;;;;;;5.00;3.70;;;;;;;10.12;57.32;101509.00;5010107;28;20034;-71
2020/12/19 01:56:44;;;;;;;7.35;3.50;;;;;;;10.25;56.76;101514.16;5018139;28;20050;-70
2020/12/19 01:59:13;;;;;;;6.00;2.63;;;;;;;10.08;57.17;101511.56;5019654;28;20038;-70
2020/12/19 02:01:47;;;;;;;6.97;3.40;;;;;;;10.09;57.33;101503.84;5015736;28;20676;-70
2020/12/19 02:04:14;;;;;;;4.90;3.72;;;;;;;10.24;56.54;101499.53;5029476;28;20394;-69
2020/12/19 02:06:43;;;;;;;7.93;3.15;;;;;;;9.87;58.26;101495.19;5013947;28;20064;-72
2020/12/19 02:09:10;;;;;;;7.50;4.35;;;;;;;10.25;56.90;101494.38;5009957;28;20030;-70
2020/12/19 02:11:35;;;;;;;6.85;4.32;;;;;;;10.18;56.95;101487.50;5011274;28;20399;-70
2020/12/19 02:14:06;;;;;;;8.45;3.90;;;;;;;10.06;57.83;101487.47;5007945;28;20472;-70
2020/12/19 02:16:32;;;;;;;4.47;3.50;;;;;;;10.04;57.42;101484.88;5003286;28;20096;-69
2020/12/19 02:18:57;;;;;;;6.10;3.60;;;;;;;9.92;58.05;101490.88;5014321;28;20025;-70
2020/12/19 02:21:23;;;;;;;7.07;3.42;;;;;;;10.10;57.24;101490.06;5017604;28;20112;-70
2020/12/19 02:23:48;;;;;;;5.63;3.88;;;;;;;9.70;58.52;101484.81;5021710;28;20053;-70
2020/12/19 02:26:14;;;;;;;6.57;3.85;;;;;;;10.22;56.65;101478.00;5021096;28;20464;-70
2020/12/19 02:28:40;;;;;;;5.55;4.07;;;;;;;10.13;57.04;101474.53;5013328;28;20044;-72
2020/12/19 02:31:05;;;;;;;10.63;4.13;;;;;;;10.19;56.86;101471.97;5018308;28;20295;-70
2020/12/19 02:33:31;;;;;;;6.45;3.55;;;;;;;10.18;56.43;101467.69;5013435;28;20026;-70
2020/12/19 02:35:57;;;;;;;6.57;3.75;;;;;;;10.13;57.16;101471.09;5015994;28;20171;-71
2020/12/19 02:38:22;;;;;;;6.45;3.92;;;;;;;9.98;57.62;101474.56;5017656;28;20037;-70
2020/12/19 02:40:48;;;;;;;5.68;3.80;;;;;;;9.95;57.88;101465.06;5012992;28;20045;-70
2020/12/19 02:43:13;;;;;;;10.68;3.78;;;;;;;9.97;58.03;101473.66;4994322;28;20037;-70
2020/12/19 02:45:39;;;;;;;7.20;4.10;;;;;;;10.14;57.10;101465.94;5011549;28;20044;-70
2020/12/19 02:48:05;;;;;;;7.38;3.47;;;;;;;10.18;56.82;101457.34;5010173;28;20038;-70
2020/12/19 02:50:30;;;;;;;9.73;3.78;;;;;;;9.63;58.95;101465.00;5013173;28;20040;-70
2020/12/19 02:52:56;;;;;;;9.45;5.65;;;;;;;9.96;58.04;101465.94;5004865;28;20030;-70
2020/12/19 02:55:21;;;;;;;5.60;4.00;;;;;;;10.16;56.69;101460.78;5003812;28;20034;-70
2020/12/19 02:57:47;;;;;;;8.35;4.38;;;;;;;10.04;57.07;101456.47;5003023;28;20292;-71
2020/12/19 03:00:13;;;;;;;11.73;4.35;;;;;;;9.94;57.75;101452.16;5017874;28;20046;-71
2020/12/19 03:02:38;;;;;;;6.93;4.63;;;;;;;10.05;57.22;101460.78;5008642;28;20060;-71
2020/12/19 03:05:04;;;;;;;10.57;4.22;;;;;;;10.10;57.03;101453.88;5014166;28;20033;-71
2020/12/19 03:07:29;;;;;;;5.82;3.80;;;;;;;10.05;56.83;101455.63;5010136;28;20061;-70
2020/12/19 03:09:55;;;;;;;7.60;4.22;;;;;;;10.00;56.97;101449.56;5012373;28;20153;-70
2020/12/19 03:12:20;;;;;;;7.65;4.22;;;;;;;9.69;58.96;101454.72;5007937;28;20044;-71
2020/12/19 03:14:46;;;;;;;8.23;4.75;;;;;;;10.00;57.41;101439.22;5013485;28;20033;-70
2020/12/19 03:17:11;;;;;;;8.88;4.35;;;;;;;10.10;56.78;101443.56;5010395;28;20034;-71
2020/12/19 03:19:37;;;;;;;7.55;4.53;;;;;;;10.02;56.80;101444.41;5009150;28;20101;-70
2020/12/19 03:22:02;;;;;;;6.97;4.60;;;;;;;9.99;57.35;101445.28;5017365;28;20037;-71
2020/12/19 03:24:28;;;;;;;8.65;5.13;;;;;;;9.89;57.94;101435.78;5010328;28;20045;-70
2020/12/19 03:26:53;;;;;;;10.52;4.72;;;;;;;9.72;58.26;101440.94;5011251;28;20030;-71
2020/12/19 03:29:19;;;;;;;9.60;5.13;;;;;;;9.71;58.79;101439.19;5013335;28;20064;-70
2020/12/19 03:31:44;;;;;;;8.13;4.90;;;;;;;9.97;57.51;101437.53;5012563;28;20022;-70
2020/12/19 03:34:10;;;;;;;11.98;5.68;;;;;;;10.01;57.44;101435.81;5017001;28;20058;-70
2020/12/19 03:36:36;;;;;;;11.32;5.22;;;;;;;9.87;57.98;101434.94;5016400;28;20072;-70
2020/12/19 03:39:02;;;;;;;9.50;5.50;;;;;;;9.76;58.25;101438.38;4995800;28;20037;-71
2020/12/19 03:41:27;;;;;;;7.38;4.35;;;;;;;9.84;57.73;101429.75;5015865;28;20042;-70
2020/12/19 03:43:53;;;;;;;9.98;4.97;;;;;;;9.83;57.92;101434.06;5017135;28;20378;-71
2020/12/19 03:46:18;;;;;;;8.63;4.38;;;;;;;9.86;58.26;101433.22;5017626;28;20042;-70
2020/12/19 03:48:44;;;;;;;16.05;5.35;;;;;;;9.91;57.86;101431.50;5018736;28;20062;-70
2020/12/19 03:51:10;;;;;;;13.27;5.05;;;;;;;9.96;57.60;101424.63;5015492;28;20038;-70
2020/12/19 03:53:35;;;;;;;10.20;5.05;;;;;;;9.94;57.51;101423.75;5015948;28;20048;-70
2020/12/19 03:56:01;;;;;;;10.80;6.43;;;;;;;9.85;57.35;101423.75;5019970;28;20037;-69
2020/12/19 03:58:26;;;;;;;11.20;5.70;;;;;;;9.70;58.47;101420.28;5033994;28;20033;-70
2020/12/19 04:00:51;;;;;;;13.32;5.60;;;;;;;9.90;57.63;101409.97;5016608;28;20048;-69
2020/12/19 04:03:17;;;;;;;7.55;5.28;;;;;;;9.90;57.53;101412.56;5078113;22;20398;-72
2020/12/19 04:05:42;;;;;;;10.13;5.93;;;;;;;9.90;57.54;101409.13;5027231;28;20846;-69
2020/12/19 04:08:08;;;;;;;11.63;5.18;;;;;;;9.70;58.47;101411.69;5029314;28;20033;-68
2020/12/19 04:10:33;;;;;;;12.00;5.88;;;;;;;9.75;58.00;101421.13;5028238;28;20052;-68
2020/12/19 04:12:59;;;;;;;9.45;5.38;;;;;;;9.80;58.20;101412.53;5026806;28;20026;-70
2020/12/19 04:15:25;;;;;;;10.00;6.05;;;;;;;9.87;57.96;101410.00;5026973;28;20122;-69
2020/12/19 04:17:51;;;;;;;11.68;6.82;;;;;;;9.85;58.44;101413.44;5028115;28;20161;-69
2020/12/19 04:20:17;;;;;;;9.57;5.47;;;;;;;9.95;57.57;101413.41;5043539;28;20032;-70
2020/12/19 04:22:43;;;;;;;11.25;5.90;;;;;;;9.91;57.66;101409.13;5026532;28;20041;-69
2020/12/19 04:25:11;;;;;;;18.25;6.30;;;;;;;9.61;58.66;101415.09;5026549;28;20068;-69
2020/12/19 04:27:38;;;;;;;13.38;6.80;;;;;;;9.85;58.14;101410.84;5027711;28;20037;-69
2020/12/19 04:30:08;;;;;;;11.55;5.93;;;;;;;9.70;58.72;101402.22;5025794;28;20029;-68
2020/12/19 04:32:36;;;;;;;13.13;6.68;;;;;;;9.93;57.98;101406.53;5028775;28;20117;-68
2020/12/19 04:35:03;;;;;;;10.35;6.28;;;;;;;9.85;58.53;101405.69;5030628;28;20037;-71
2020/12/19 04:37:28;;;;;;;13.45;6.65;;;;;;;9.52;59.73;101402.19;5033533;28;20052;-68
2020/12/19 04:39:54;;;;;;;11.48;5.40;;;;;;;9.87;58.51;101403.97;5034955;28;20025;-70
2020/12/19 04:42:20;;;;;;;15.52;7.22;;;;;;;9.80;58.65;101404.78;5030497;28;20677;-70
2020/12/19 04:44:47;;;;;;;12.32;7.68;;;;;;;9.77;59.10;101392.75;5029572;28;20075;-71
2020/12/19 04:47:13;;;;;;;11.90;7.13;;;;;;;9.79;59.16;101397.94;5031611;28;20029;-71
2020/12/19 04:49:41;;;;;;;13.43;7.38;;;;;;;9.70;59.58;101394.47;5032717;28;20041;-69
2020/12/19 04:52:07;;;;;;;14.65;7.18;;;;;;;9.89;58.67;101391.88;5031446;28;20037;-69
2020/12/19 04:54:32;;;;;;;13.70;6.95;;;;;;;9.89;58.43;101386.72;5031499;28;20082;-69
2020/12/19 04:56:59;;;;;;;13.73;7.40;;;;;;;9.76;59.59;101394.47;5046984;28;20626;-70
2020/12/19 04:59:25;;;;;;;17.25;7.18;;;;;;;9.79;59.76;101395.34;5030956;28;20033;-69
2020/12/19 05:01:50;;;;;;;12.32;6.35;;;;;;;9.89;59.06;101402.22;5030443;28;20048;-69
2020/12/19 05:04:16;;;;;;;14.88;6.57;;;;;;;10.05;58.26;101392.78;5032791;28;20086;-70
2020/12/19 05:06:42;;;;;;;12.77;6.78;;;;;;;9.79;59.55;101401.38;5031851;28;20113;-71
2020/12/19 05:09:09;;;;;;;14.90;6.82;;;;;;;9.94;59.07;101405.69;5032056;28;20072;-68
2020/12/19 05:11:35;;;;;;;13.27;6.43;;;;;;;10.00;58.11;101392.75;5028909;28;20036;-70
2020/12/19 05:14:03;;;;;;;15.18;7.32;;;;;;;10.04;58.00;101399.63;5031742;28;20498;-68
2020/12/19 05:16:29;;;;;;;12.05;6.38;;;;;;;9.95;58.21;101392.75;5031368;28;20040;-68
2020/12/19 05:18:54;;;;;;;11.10;5.80;;;;;;;9.85;59.00;101390.19;5030751;28;20037;-68
2020/12/19 05:21:21;;;;;;;11.55;7.00;;;;;;;10.06;58.32;101379.00;5031461;28;20112;-69
2020/12/19 05:23:47;;;;;;;12.80;7.15;;;;;;;9.84;58.94;101380.72;5031028;28;20505;-70
2020/12/19 05:26:13;;;;;;;12.02;6.18;;;;;;;9.85;58.67;101377.28;5031002;28;20402;-69
2020/12/19 05:28:40;;;;;;;9.60;5.93;;;;;;;9.84;58.78;101370.38;5030731;28;20479;-71
2020/12/19 05:31:08;;;;;;;15.70;7.53;;;;;;;9.75;59.35;101369.50;5046227;28;20053;-69
2020/12/19 05:33:34;;;;;;;13.00;6.57;;;;;;;9.93;58.67;101367.78;5043023;28;20038;-68
2020/12/19 05:36:01;;;;;;;10.48;6.20;;;;;;;9.82;58.70;101369.53;5030974;28;20018;-70
2020/12/19 05:38:29;;;;;;;15.05;6.38;;;;;;;9.83;58.97;101360.94;5030108;28;20045;-69
2020/12/19 05:40:55;;;;;;;12.25;6.25;;;;;;;9.71;59.34;101367.81;5045599;28;20036;-70
2020/12/19 05:43:21;;;;;;;10.65;6.05;;;;;;;9.68;59.16;101367.78;5029955;28;20037;-69
2020/12/19 05:45:46;;;;;;;12.40;6.78;;;;;;;9.83;59.16;101366.09;5029430;28;20039;-68
2020/12/19 05:48:12;;;;;;;13.07;6.78;;;;;;;9.91;58.53;101359.19;5031626;28;20033;-70
2020/12/19 05:50:37;;;;;;;12.27;5.93;;;;;;;9.32;60.98;101353.97;5028587;28;20040;-69
2020/12/19 05:53:03;;;;;;;10.05;5.90;;;;;;;9.87;59.03;101349.75;5029853;28;20564;-69
2020/12/19 05:55:33;;;;;;;11.75;6.57;;;;;;;9.59;60.10;101347.13;5028439;28;20034;-70
2020/12/19 05:58:00;;;;;;;15.80;8.10;;;;;;;9.76;59.30;101357.50;5032520;28;20060;-70
2020/12/19 06:00:28;;;;;;;14.48;6.43;;;;;;;9.75;59.33;101348.84;5030237;28;20037;-72
2020/12/19 06:02:56;;;;;;;12.25;6.70;;;;;;;9.80;59.50;101340.25;5029173;28;20025;-72
2020/12/19 06:05:23;;;;;;;15.32;7.80;;;;;;;9.88;59.11;101348.88;5029919;28;20491;-70
2020/12/19 06:07:48;;;;;;;13.73;7.57;;;;;;;10.07;58.92;101347.13;5030601;28;20025;-69
2020/12/19 06:10:16;;;;;;;12.68;6.93;;;;;;;10.05;58.51;101341.13;5029555;28;20091;-69
2020/12/19 06:12:45;;;;;;;12.52;7.10;;;;;;;9.97;58.79;101339.38;5027640;28;20033;-70
2020/12/19 06:15:19;;;;;;;13.02;7.28;;;;;;;9.87;58.99;101336.84;5029100;28;20028;-70
2020/12/19 06:17:52;;;;;;;14.68;7.20;;;;;;;9.98;58.62;101341.13;5029820;28;20041;-69
2020/12/19 06:20:18;;;;;;;10.07;6.45;;;;;;;9.98;59.05;101333.38;5045665;28;20039;-70
2020/12/19 06:22:44;;;;;;;16.58;7.65;;;;;;;9.93;59.16;101332.50;5029569;28;20037;-70
2020/12/19 06:25:09;;;;;;;12.52;6.63;;;;;;;9.95;59.06;101329.94;5029370;28;20060;-70
2020/12/19 06:27:34;;;;;;;11.52;6.63;;;;;;;9.84;59.79;101331.66;5030247;28;20045;-70
2020/12/19 06:30:02;;;;;;;12.23;7.10;;;;;;;10.11;58.30;101331.66;5044605;28;20029;-71
2020/12/19 06:32:29;;;;;;;15.27;7.35;;;;;;;10.00;59.03;101332.50;5027031;28;20052;-70
2020/12/19 06:35:07;;;;;;;13.20;7.22;;;;;;;9.79;59.84;101333.38;5028555;28;20029;-70
2020/12/19 06:37:35;;;;;;;12.80;6.40;;;;;;;10.10;58.64;101339.38;5028157;28;20041;-72
2020/12/19 06:40:14;;;;;;;11.95;7.30;;;;;;;10.11;57.95;101341.97;5027462;28;20418;-73
2020/12/19 06:42:41;;;;;;;14.27;6.97;;;;;;;10.03;58.02;101340.25;5043433;28;20052;-70
2020/12/19 06:45:36;;;;;;;12.80;6.25;;;;;;;9.92;58.49;101330.78;5028791;28;20789;-69
2020/12/19 06:48:02;;;;;;;15.35;7.05;;;;;;;9.86;58.71;101335.97;5014908;28;20372;-68
2020/12/19 06:50:57;;;;;;;13.25;6.65;;;;;;;9.85;58.26;101330.81;5028220;28;20103;-67
2020/12/19 06:53:23;;;;;;;16.23;8.48;;;;;;;9.81;58.70;101336.84;5028292;28;20041;-70
2020/12/19 06:55:48;;;;;;;15.55;7.45;;;;;;;9.79;58.50;101335.97;5028352;28;20478;-68
2020/12/19 06:58:26;;;;;;;14.02;6.47;;;;;;;9.71;58.81;101335.94;5045627;28;20044;-69
2020/12/19 07:00:52;;;;;;;13.73;6.22;;;;;;;9.74;58.41;101335.97;5028453;28;20029;-69
2020/12/19 07:03:34;;;;;;;10.68;6.45;;;;;;;9.67;59.13;101340.28;5029861;28;20599;-69
2020/12/19 07:06:10;;;;;;;12.27;6.68;;;;;;;9.71;58.81;101342.00;5029309;28;20495;-71
2020/12/19 07:08:36;;;;;;;15.25;7.07;;;;;;;9.66;59.32;101338.53;5028254;28;20426;-69
2020/12/19 07:11:01;;;;;;;14.52;7.82;;;;;;;9.72;59.02;101350.59;5029156;28;20017;-69
2020/12/19 07:13:54;;;;;;;13.88;7.15;;;;;;;9.71;59.25;101347.16;5029792;28;20060;-69
2020/12/19 07:16:49;;;;;;;13.88;6.85;;;;;;;9.76;59.11;101348.00;5029796;28;20037;-70
2020/12/19 07:19:19;;;;;;;14.05;7.90;;;;;;;9.71;59.04;101341.13;5029412;28;20045;-69
2020/12/19 07:21:45;;;;;;;14.25;7.35;;;;;;;9.71;59.19;101347.16;5028591;28;20041;-69
2020/12/19 07:24:11;;;;;;;10.40;5.93;;;;;;;9.66;59.21;101337.69;5028336;28;20056;-67
2020/12/19 07:26:38;;;;;;;13.32;7.07;;;;;;;9.71;59.10;101336.84;5014202;28;20078;-69
2020/12/19 07:29:16;;;;;;;12.90;7.03;;;;;;;9.74;58.78;101334.25;5029392;28;20482;-68
2020/12/19 07:31:43;;;;;;;14.18;6.68;;;;;;;9.72;59.07;101327.38;5011383;28;20041;-69
2020/12/19 07:34:09;;;;;;;15.32;8.65;;;;;;;9.60;59.54;101332.50;5030124;28;20125;-71
2020/12/19 07:36:38;;;;;;;16.30;7.40;;;;;;;9.66;59.16;101333.38;5027396;28;20095;-69
2020/12/19 07:39:05;;;;;;;17.63;7.68;;;;;;;9.60;59.08;101330.81;5029265;28;20048;-68
2020/12/19 07:41:30;;;;;;;17.33;8.52;;;;;;;9.76;59.01;101329.94;5029517;28;20037;-71
2020/12/19 07:44:16;;;;;;;18.02;8.25;;;;;;;9.75;59.11;101333.38;5028155;28;20036;-68
2020/12/19 07:46:54;;;;;;;18.42;7.88;;;;;;;9.72;59.38;101333.38;5027847;28;20044;-67
2020/12/19 07:49:41;;;;;;;16.90;7.97;;;;;;;9.88;58.54;101338.53;5044382;28;20037;-69
2020/12/19 07:52:19;;;;;;;14.10;6.95;;;;;;;9.67;59.46;101335.13;5028179;28;20513;-70
2020/12/19 07:54:57;;;;;;;20.23;9.10;;;;;;;9.59;59.55;101341.97;5026357;28;20041;-71
2020/12/19 07:57:24;;;;;;;13.60;8.60;;;;;;;9.92;58.90;101332.53;5027156;28;20040;-68
2020/12/19 07:59:50;;;;;;;12.07;7.43;;;;;;;9.97;58.78;101333.38;5042433;28;20674;-69
2020/12/19 08:02:17;;;;;;;17.70;8.38;;;;;;;10.11;58.29;101336.81;5041675;28;20068;-69
2020/12/19 08:04:50;;;;;;;19.52;8.98;;;;;;;10.05;58.57;101339.41;5027173;28;20029;-69
2020/12/19 08:07:21;;;;;;;14.45;7.97;;;;;;;10.14;58.50;101344.53;5029028;28;20406;-69
2020/12/19 08:09:47;;;;;;;17.85;8.35;;;;;;;10.06;58.73;101348.84;5034298;28;20701;-70
2020/12/19 08:12:13;;;;;;;22.75;9.10;;;;;;;10.22;58.67;101348.84;5034848;28;20021;-71
2020/12/19 08:14:40;;;;;;;21.67;10.15;;;;;;;10.10;58.84;101339.38;5034049;28;20037;-69
2020/12/19 08:17:14;;;;;;;16.25;8.95;;;;;;;10.10;59.22;101337.66;5034863;28;20037;-70
2020/12/19 08:19:44;;;;;;;19.75;8.60;;;;;;;9.96;60.00;101326.50;5021439;28;20490;-68
2020/12/19 08:22:11;;;;;;;18.77;9.23;;;;;;;10.32;58.74;101340.25;5031141;28;20034;-69
2020/12/19 08:24:36;;;;;;;19.23;8.57;;;;;;;10.45;58.43;101341.06;5032756;28;20037;-70
2020/12/19 08:27:24;;;;;;;16.63;8.35;;;;;;;10.48;58.29;101341.06;5032903;28;20025;-69
2020/12/19 08:30:03;;;;;;;17.30;8.85;;;;;;;10.27;58.80;101339.34;5028897;28;20030;-70
2020/12/19 08:32:30;;;;;;;15.93;8.73;;;;;;;10.71;57.84;101333.22;5032456;28;20029;-68
2020/12/19 08:34:56;;;;;;;16.33;9.10;;;;;;;10.67;57.86;101334.97;5033909;28;20485;-68
2020/12/19 08:37:21;;;;;;;15.75;8.25;;;;;;;10.69;57.95;101330.63;5048348;28;20049;-69
2020/12/19 08:40:13;;;;;;;19.80;9.65;;;;;;;10.71;57.88;101328.91;5031478;28;20063;-68
2020/12/19 08:42:40;;;;;;;14.80;6.68;;;;;;;10.94;57.30;101321.06;5031313;28;20501;-73
2020/12/19 08:45:27;;;;;;;18.73;9.00;;;;;;;10.87;57.75;101328.84;5031309;28;20048;-69
2020/12/19 08:47:58;;;;;;;21.65;9.57;;;;;;;11.77;55.26;101325.66;5031630;28;20067;-69
2020/12/19 08:50:26;;;;;;;10.57;5.73;;;;;;;12.30;53.87;101320.00;5030018;28;20686;-69
2020/12/19 08:53:01;;;;;;;16.35;7.78;;;;;;;12.77;52.48;101327.22;5047791;28;20033;-68
2020/12/19 08:55:27;;;;;;;18.13;7.28;;;;;;;12.22;53.09;101323.53;5030240;28;20041;-70
2020/12/19 08:57:52;;;;;;;15.32;7.60;;;;;;;12.14;53.61;101314.13;5033234;28;20033;-69
2020/12/19 09:00:18;;;;;;;16.25;8.88;;;;;;;12.25;53.36;101318.31;5014105;28;20068;-71
2020/12/19 09:02:44;;;;;;;18.10;8.73;;;;;;;12.00;54.39;101316.84;5028277;28;20033;-70
2020/12/19 09:05:10;;;;;;;11.88;7.40;;;;;;;11.88;54.62;101319.53;5008183;28;20036;-69
2020/12/19 09:07:36;;;;;;;17.98;8.93;;;;;;;11.60;55.79;101322.34;5032524;28;20052;-69
2020/12/19 09:10:21;;;;;;;19.88;8.55;;;;;;;11.78;55.56;101321.34;5047427;28;20387;-70
2020/12/19 09:12:47;;;;;;;14.90;8.43;;;;;;;11.67;55.94;101324.00;5032054;28;20029;-68
2020/12/19 09:15:18;;;;;;;16.38;8.52;;;;;;;11.84;55.35;101314.38;5030820;28;20051;-69
2020/12/19 09:17:44;;;;;;;19.30;8.60;;;;;;;11.78;55.58;101316.16;5029713;28;20055;-68
2020/12/19 09:20:09;;;;;;;16.00;9.73;;;;;;;12.13;54.78;101318.44;5028170;28;20773;-69
2020/12/19 09:22:35;;;;;;;16.92;9.30;;;;;;;11.38;56.35;101319.91;5027408;28;20096;-67
2020/12/19 09:25:00;;;;;;;17.08;9.32;;;;;;;12.19;54.79;101320.09;5031113;28;20021;-69
2020/12/19 09:27:26;;;;;;;20.92;10.63;;;;;;;12.31;54.60;101314.81;5028418;28;20095;-70
2020/12/19 09:29:51;;;;;;;13.95;7.72;;;;;;;12.48;53.92;101314.63;5046743;28;20037;-69
2020/12/19 09:32:17;;;;;;;19.23;8.32;;;;;;;12.96;52.62;101317.47;5033711;28;20059;-69
2020/12/19 09:34:42;;;;;;;14.65;7.45;;;;;;;12.95;52.50;101313.16;5033212;28;20029;-70
2020/12/19 09:37:08;;;;;;;12.35;7.75;;;;;;;13.32;51.67;101322.19;5030710;28;20025;-69
2020/12/19 09:39:33;;;;;;;16.75;7.75;;;;;;;13.80;50.43;101310.16;5027923;28;20127;-68
2020/12/19 09:41:59;;;;;;;11.32;7.03;;;;;;;14.01;49.74;101306.31;5027625;28;20105;-69
2020/12/19 09:44:25;;;;;;;13.93;6.85;;;;;;;14.13;49.27;101300.00;5026318;28;20037;-70
2020/12/19 09:46:50;;;;;;;14.43;7.45;;;;;;;13.91;50.08;101294.38;5028484;28;20837;-69
2020/12/19 09:49:16;;;;;;;14.15;7.20;;;;;;;14.44;49.04;101299.44;5028210;28;20087;-68
2020/12/19 09:51:41;;;;;;;13.18;7.47;;;;;;;14.43;48.65;101293.38;5027949;28;20091;-69
2020/12/19 09:54:06;;;;;;;12.40;7.20;;;;;;;14.59;48.24;101288.75;5029786;28;20732;-69
2020/12/19 09:56:39;;;;;;;13.73;7.93;;;;;;;14.28;48.49;101289.31;5028669;28;20107;-70
2020/12/19 09:59:05;;;;;;;14.10;8.00;;;;;;;14.35;49.05;101289.22;5028096;28;20068;-69
2020/12/19 10:01:30;;;;;;;11.63;6.65;;;;;;;14.43;48.10;101274.31;5024038;28;20044;-69
2020/12/19 10:03:56;;;;;;;12.70;7.85;;;;;;;14.28;48.95;101278.06;5043511;22;20486;-69
2020/12/19 10:06:22;;;;;;;14.27;8.57;;;;;;;14.06;49.37;101275.88;5058275;28;20085;-70
2020/12/19 10:08:47;;;;;;;17.90;7.93;;;;;;;14.24;49.49;101269.47;5046667;28;20029;-69
2020/12/19 10:11:12;;;;;;;12.15;7.63;;;;;;;14.15;49.60;101272.25;5048393;28;20688;-69
2020/12/19 10:13:38;;;;;;;52.88;9.55;;;;;;;14.03;50.22;101278.53;5048045;28;20043;-69
2020/12/19 10:16:05;;;;;;;11.13;7.00;;;;;;;14.10;49.88;101274.09;5043743;28;20059;-71
2020/12/19 10:18:30;;;;;;;13.32;7.38;;;;;;;13.83;50.89;101270.25;5046214;28;20033;-71
2020/12/19 10:20:56;;;;;;;15.10;6.82;;;;;;;14.27;49.53;101269.44;5047156;28;20092;-70
2020/12/19 10:23:21;;;;;;;17.10;8.80;;;;;;;14.31;49.73;101271.09;5046612;28;20074;-71
2020/12/19 10:25:47;;;;;;;13.38;8.38;;;;;;;14.55;49.83;101268.88;5049260;28;20271;-71
2020/12/19 10:28:12;;;;;;;13.27;6.47;;;;;;;14.52;49.01;101263.72;5049450;28;20099;-70
2020/12/19 10:30:38;;;;;;;16.70;7.97;;;;;;;14.41;49.60;101256.13;5046891;28;20037;-70
2020/12/19 10:33:03;;;;;;;16.25;8.05;;;;;;;14.24;49.90;101259.06;5046209;28;20251;-70
2020/12/19 10:35:29;;;;;;;11.20;6.60;;;;;;;13.80;50.84;101263.38;5031933;28;20033;-71
2020/12/19 10:37:54;;;;;;;13.68;7.45;;;;;;;14.20;50.10;101253.97;5030764;28;20546;-70
2020/12/19 10:40:20;;;;;;;13.57;7.63;;;;;;;14.21;50.16;101243.53;5049205;28;20085;-69
2020/12/19 10:42:45;;;;;;;15.40;8.60;;;;;;;13.85;51.02;101253.75;5046650;28;20167;-70
2020/12/19 10:45:11;;;;;;;15.02;7.90;;;;;;;14.27;50.42;101259.03;5049794;28;20353;-70
2020/12/19 10:47:36;;;;;;;11.10;6.38;;;;;;;12.61;53.98;101243.59;5046544;28;20029;-72
2020/12/19 10:50:02;;;;;;;15.43;7.97;;;;;;;13.56;52.23;101237.84;5048035;28;20215;-73
2020/12/19 10:52:28;;;;;;;18.88;7.60;;;;;;;13.86;51.66;101250.28;5050361;28;20032;-70
2020/12/19 10:54:54;;;;;;;17.90;7.18;;;;;;;13.21;53.36;101249.63;5047806;28;20043;-69
2020/12/19 10:57:20;;;;;;;12.90;7.93;;;;;;;13.53;53.15;101245.66;5055887;28;20115;-71
2020/12/19 10:59:46;;;;;;;15.93;8.77;;;;;;;13.94;52.00;101250.13;5048010;28;20079;-70
2020/12/19 11:02:11;;;;;;;15.25;8.43;;;;;;;14.11;51.19;101242.03;5046922;28;20040;-71
2020/12/19 11:04:36;;;;;;;14.50;7.60;;;;;;;14.26;51.09;101233.91;5046572;28;20032;-70
2020/12/19 11:07:02;;;;;;;12.27;7.28;;;;;;;14.12;51.93;101231.56;5046958;28;20044;-71
2020/12/19 11:09:27;;;;;;;12.23;7.40;;;;;;;14.09;51.54;101223.84;5031131;28;20252;-72
2020/12/19 11:11:54;;;;;;;12.65;6.97;;;;;;;14.23;52.12;101220.97;5048572;28;20039;-72
2020/12/19 11:14:21;;;;;;;11.52;7.18;;;;;;;14.36;51.13;101215.53;5049073;28;20040;-70
2020/12/19 11:16:46;;;;;;;13.07;6.47;;;;;;;14.55;51.12;101219.47;5048604;28;20094;-70
2020/12/19 11:19:12;;;;;;;8.73;5.93;;;;;;;14.43;51.43;101214.50;5027570;28;20156;-71
2020/12/19 11:21:44;;;;;;;13.48;7.93;;;;;;;14.16;51.83;101208.13;5028522;28;20029;-70
2020/12/19 11:24:11;;;;;;;15.30;7.95;;;;;;;13.77;53.45;101219.25;5047312;28;20047;-69